createdAt,value
2019-01-19T00:01:15.751Z,6.95
2019-01-19T00:04:59.700Z,7.97
2019-01-19T00:08:16.164Z,7.35
2019-01-19T00:12:07.345Z,7.70
2019-01-19T00:15:21.559Z,7.00
2019-01-19T00:18:56.265Z,9.63
2019-01-19T00:22:47.195Z,13.40
2019-01-19T00:26:29.034Z,14.33
2019-01-19T00:30:08.520Z,17.65
2019-01-19T00:33:56.119Z,16.07
2019-01-19T00:37:27.803Z,14.03
2019-01-19T00:41:02.264Z,8.28
2019-01-19T00:44:44.176Z,6.92
2019-01-19T00:48:14.823Z,7.80
2019-01-19T00:52:02.983Z,6.20
2019-01-19T00:55:42.701Z,8.03
2019-01-19T00:58:51.442Z,8.05
2019-01-19T01:02:33.539Z,12.43
2019-01-19T01:06:17.060Z,13.80
2019-01-19T01:10:01.681Z,14.47
2019-01-19T01:13:18.524Z,8.25
2019-01-19T01:17:09.403Z,8.80
2019-01-19T01:20:51.816Z,7.72
2019-01-19T01:24:43.181Z,8.05
2019-01-19T01:28:25.279Z,7.97
2019-01-19T01:31:46.748Z,9.03
2019-01-19T01:35:05.856Z,8.20
2019-01-19T01:38:53.064Z,7.80
2019-01-19T01:42:37.904Z,7.33
2019-01-19T01:46:17.476Z,8.25
2019-01-19T01:49:34.892Z,8.00
2019-01-19T01:53:19.444Z,8.28
2019-01-19T01:56:24.588Z,7.60
2019-01-19T01:59:39.851Z,8.53
2019-01-19T02:03:19.088Z,7.95
2019-01-19T02:07:09.421Z,7.85
2019-01-19T02:10:54.262Z,7.22
2019-01-19T02:14:40.520Z,8.08
2019-01-19T02:18:41.787Z,7.12
2019-01-19T02:22:13.725Z,7.20
2019-01-19T02:25:43.349Z,7.42
2019-01-19T02:29:18.211Z,6.20
2019-01-19T02:32:53.659Z,6.95
2019-01-19T02:36:20.922Z,5.65
2019-01-19T02:39:57.736Z,6.35
2019-01-19T02:43:13.544Z,6.80
2019-01-19T02:46:54.163Z,5.80
2019-01-19T02:50:38.483Z,6.17
2019-01-19T02:54:29.944Z,6.12
2019-01-19T02:58:14.707Z,5.60
2019-01-19T03:02:00.912Z,6.05
2019-01-19T03:05:37.391Z,6.00
2019-01-19T03:09:16.814Z,6.70
2019-01-19T03:12:38.824Z,5.97
2019-01-19T03:15:56.770Z,6.25
2019-01-19T03:20:13.163Z,8.20
2019-01-19T03:23:49.787Z,7.60
2019-01-19T03:27:45.488Z,7.90
2019-01-19T03:31:17.679Z,7.17
2019-01-19T03:34:55.805Z,7.83
2019-01-19T03:38:29.440Z,6.35
2019-01-19T03:42:01.968Z,6.42
2019-01-19T03:45:31.403Z,7.05
2019-01-19T03:49:13.282Z,6.30
2019-01-19T03:52:44.484Z,7.42
2019-01-19T03:56:33.262Z,7.08
2019-01-19T03:59:55.111Z,7.90
2019-01-19T04:03:44.673Z,7.65
2019-01-19T04:07:02.836Z,7.90
2019-01-19T04:10:24.087Z,6.53
2019-01-19T04:13:46.855Z,6.70
2019-01-19T04:17:28.396Z,6.85
2019-01-19T04:21:10.592Z,5.85
2019-01-19T04:24:29.216Z,6.67
2019-01-19T04:27:34.328Z,7.30
2019-01-19T04:30:39.580Z,7.10
2019-01-19T04:33:44.726Z,6.55
2019-01-19T04:36:50.029Z,7.72
2019-01-19T04:39:55.152Z,7.78
2019-01-19T04:43:00.285Z,6.30
2019-01-19T04:46:05.410Z,7.17
2019-01-19T04:49:10.911Z,6.90
2019-01-19T04:52:15.880Z,6.80
2019-01-19T04:55:21.037Z,6.47
2019-01-19T04:58:26.146Z,6.85
2019-01-19T05:01:31.263Z,9.80
2019-01-19T05:04:36.387Z,8.23
2019-01-19T05:07:41.498Z,8.05
2019-01-19T05:10:46.647Z,8.55
2019-01-19T05:13:51.690Z,7.40
2019-01-19T05:16:56.827Z,7.40
2019-01-19T05:20:01.869Z,6.80
2019-01-19T05:23:07.064Z,7.40
2019-01-19T05:26:12.057Z,6.55
2019-01-19T05:29:17.198Z,7.35
2019-01-19T05:32:22.494Z,7.35
2019-01-19T05:35:27.627Z,6.90
2019-01-19T05:38:32.657Z,7.08
2019-01-19T05:41:37.704Z,6.65
2019-01-19T05:44:42.805Z,6.33
2019-01-19T05:47:47.766Z,6.85
2019-01-19T05:50:53.369Z,6.97
2019-01-19T05:53:58.680Z,6.15
2019-01-19T05:57:03.831Z,7.10
2019-01-19T06:00:17.576Z,6.83
2019-01-19T06:03:22.754Z,6.42
2019-01-19T06:06:28.229Z,6.95
2019-01-19T06:09:33.289Z,7.05
2019-01-19T06:12:38.694Z,7.85
2019-01-19T06:15:43.963Z,7.83
2019-01-19T06:18:49.700Z,9.65
2019-01-19T06:21:59.895Z,10.25
2019-01-19T06:25:05.790Z,9.75
2019-01-19T06:28:10.976Z,7.72
2019-01-19T06:31:16.022Z,10.32
2019-01-19T06:34:21.061Z,10.25
2019-01-19T06:37:26.171Z,12.33
2019-01-19T06:40:31.301Z,9.23
2019-01-19T06:43:36.352Z,9.60
2019-01-19T06:46:41.338Z,9.05
2019-01-19T06:49:46.447Z,9.03
2019-01-19T06:52:51.628Z,10.45
2019-01-19T06:55:56.672Z,9.08
2019-01-19T06:59:01.657Z,10.82
2019-01-19T07:02:07.345Z,9.63
2019-01-19T07:05:13.434Z,9.13
2019-01-19T07:08:20.317Z,9.60
2019-01-19T07:11:25.544Z,9.63
2019-01-19T07:14:30.664Z,11.18
2019-01-19T07:17:35.817Z,9.85
2019-01-19T07:20:41.947Z,9.28
2019-01-19T07:23:47.007Z,9.80
2019-01-19T07:26:52.477Z,7.87
2019-01-19T07:29:57.515Z,9.13
2019-01-19T07:33:02.586Z,9.00
2019-01-19T07:36:07.767Z,9.25
2019-01-19T07:39:12.822Z,8.95
2019-01-19T07:42:18.092Z,9.00
2019-01-19T07:45:23.063Z,9.43
2019-01-19T07:48:28.547Z,9.10
2019-01-19T07:51:33.695Z,9.03
2019-01-19T07:54:38.679Z,13.68
2019-01-19T07:57:43.807Z,8.95
2019-01-19T08:00:49.022Z,8.88
2019-01-19T08:03:54.176Z,9.98
2019-01-19T08:06:59.301Z,8.80
2019-01-19T08:10:04.672Z,10.72
2019-01-19T08:13:09.710Z,10.72
2019-01-19T08:16:14.760Z,9.13
2019-01-19T08:19:19.736Z,9.20
2019-01-19T08:22:24.848Z,8.33
2019-01-19T08:25:29.960Z,8.55
2019-01-19T08:28:35.103Z,8.48
2019-01-19T08:31:40.212Z,9.35
2019-01-19T08:34:46.603Z,9.75
2019-01-19T08:37:52.475Z,8.95
2019-01-19T08:40:57.583Z,9.10
2019-01-19T08:44:04.536Z,9.68
2019-01-19T08:47:09.652Z,8.28
2019-01-19T08:50:14.835Z,7.92
2019-01-19T08:53:19.920Z,7.17
2019-01-19T08:56:25.026Z,8.28
2019-01-19T08:59:30.079Z,6.67
2019-01-19T09:02:35.066Z,6.45
2019-01-19T09:05:40.436Z,7.37
2019-01-19T09:08:45.878Z,6.92
2019-01-19T09:11:51.130Z,6.60
2019-01-19T09:14:56.393Z,7.05
2019-01-19T09:18:02.624Z,6.55
2019-01-19T09:21:08.371Z,6.30
2019-01-19T09:24:18.553Z,5.83
2019-01-19T09:27:23.665Z,7.15
2019-01-19T09:30:28.756Z,6.90
2019-01-19T09:33:33.859Z,6.80
2019-01-19T09:36:38.951Z,5.35
2019-01-19T09:39:43.995Z,5.65
2019-01-19T09:42:49.097Z,5.97
2019-01-19T09:45:54.219Z,4.42
2019-01-19T09:48:59.340Z,6.15
2019-01-19T09:52:04.451Z,5.35
2019-01-19T09:55:09.772Z,5.08
2019-01-19T09:58:14.808Z,5.87
2019-01-19T10:01:19.858Z,5.12
2019-01-19T10:04:25.086Z,6.60
2019-01-19T10:07:30.195Z,7.10
2019-01-19T10:10:35.146Z,5.80
2019-01-19T10:13:40.343Z,7.87
2019-01-19T10:16:45.445Z,7.87
2019-01-19T10:19:50.599Z,6.37
2019-01-19T10:22:55.753Z,5.67
2019-01-19T10:26:00.856Z,5.95
2019-01-19T10:29:06.038Z,5.55
2019-01-19T10:32:11.130Z,5.83
2019-01-19T10:35:16.375Z,5.30
2019-01-19T10:38:21.468Z,5.35
2019-01-19T10:41:26.516Z,5.75
2019-01-19T10:44:31.595Z,26.35
2019-01-19T10:47:36.699Z,6.42
2019-01-19T10:50:41.814Z,5.72
2019-01-19T10:53:46.847Z,8.05
2019-01-19T10:56:51.900Z,6.62
2019-01-19T10:59:56.861Z,6.25
2019-01-19T11:03:01.989Z,6.92
2019-01-19T11:06:07.100Z,11.83
2019-01-19T11:09:12.227Z,4.75
2019-01-19T11:12:17.331Z,5.65
2019-01-19T11:15:22.498Z,6.33
2019-01-19T11:18:27.535Z,5.40
2019-01-19T11:21:32.663Z,5.30
2019-01-19T11:24:37.747Z,17.35
2019-01-19T11:27:42.863Z,6.05
2019-01-19T11:30:47.983Z,5.80
2019-01-19T11:33:53.193Z,5.10
2019-01-19T11:36:59.085Z,4.20
2019-01-19T11:40:04.780Z,4.63
2019-01-19T11:43:10.948Z,5.23
2019-01-19T11:46:16.055Z,5.53
2019-01-19T11:49:21.104Z,5.00
2019-01-19T11:52:26.139Z,5.13
2019-01-19T11:55:31.258Z,6.63
2019-01-19T11:58:36.315Z,5.60
2019-01-19T12:01:41.348Z,4.80
2019-01-19T12:04:46.547Z,5.20
2019-01-19T12:07:51.787Z,4.50
2019-01-19T12:10:56.981Z,6.70
2019-01-19T12:14:02.104Z,4.80
2019-01-19T12:17:07.273Z,5.10
2019-01-19T12:20:18.683Z,4.40
2019-01-19T12:23:23.733Z,5.93
2019-01-19T12:26:28.838Z,5.53
2019-01-19T12:29:33.901Z,5.37
2019-01-19T12:32:39.103Z,6.10
2019-01-19T12:35:44.215Z,5.23
2019-01-19T12:38:49.340Z,4.83
2019-01-19T12:41:54.530Z,5.63
2019-01-19T12:44:59.672Z,3.70
2019-01-19T12:48:04.974Z,4.90
2019-01-19T12:51:11.751Z,5.17
2019-01-19T12:54:16.871Z,4.57
2019-01-19T12:57:21.971Z,4.00
2019-01-19T13:00:27.263Z,5.47
2019-01-19T13:03:32.375Z,4.93
2019-01-19T13:07:09.928Z,3.73
2019-01-19T13:10:27.199Z,5.03
2019-01-19T13:13:43.507Z,7.20
2019-01-19T13:17:05.643Z,7.10
2019-01-19T13:20:24.131Z,4.80
2019-01-19T13:24:02.647Z,5.47
2019-01-19T13:27:24.899Z,8.83
2019-01-19T13:31:11.285Z,4.60
2019-01-19T13:34:55.978Z,4.60
2019-01-19T13:38:32.280Z,8.93
2019-01-19T13:42:09.527Z,4.30
2019-01-19T13:45:56.095Z,2.13
2019-01-19T13:49:40.887Z,2.33
2019-01-19T13:53:09.690Z,2.53
2019-01-19T13:56:42.931Z,2.70
2019-01-19T14:00:01.969Z,2.67
2019-01-19T14:03:17.168Z,3.73
2019-01-19T14:07:27.432Z,2.77
2019-01-19T14:10:40.607Z,3.13
2019-01-19T14:14:35.853Z,4.20
2019-01-19T14:18:07.310Z,2.63
2019-01-19T14:21:23.748Z,3.27
2019-01-19T14:25:21.755Z,3.80
2019-01-19T14:29:05.651Z,3.67
2019-01-19T14:32:31.218Z,3.60
2019-01-19T14:36:09.792Z,4.63
2019-01-19T14:40:01.276Z,15.67
2019-01-19T14:43:43.859Z,5.90
2019-01-19T14:47:27.331Z,3.83
2019-01-19T14:51:10.478Z,6.30
2019-01-19T14:54:51.490Z,4.37
2019-01-19T14:58:47.012Z,8.23
2019-01-19T15:02:42.460Z,7.47
2019-01-19T15:06:24.167Z,10.17
2019-01-19T15:10:03.850Z,13.00
2019-01-19T15:13:46.162Z,9.80
2019-01-19T15:17:13.984Z,8.33
2019-01-19T15:20:32.298Z,8.90
2019-01-19T15:24:14.155Z,7.30
2019-01-19T15:27:48.823Z,6.10
2019-01-19T15:31:43.560Z,8.53
2019-01-19T15:35:14.691Z,6.13
2019-01-19T15:39:11.035Z,6.73
2019-01-19T15:43:01.023Z,7.33
2019-01-19T15:46:43.675Z,7.83
2019-01-19T15:50:28.031Z,8.43
2019-01-19T15:53:52.889Z,8.33
2019-01-19T15:57:35.503Z,6.90
2019-01-19T16:01:26.186Z,6.87
2019-01-19T16:05:08.238Z,6.70
2019-01-19T16:08:50.599Z,8.57
2019-01-19T16:12:17.511Z,6.00
2019-01-19T16:16:05.358Z,7.65
2019-01-19T16:19:44.451Z,7.53
2019-01-19T16:23:36.556Z,11.55
2019-01-19T16:27:05.653Z,17.85
2019-01-19T16:31:15.921Z,20.08
2019-01-19T16:34:48.345Z,15.90
2019-01-19T16:38:52.696Z,11.43
2019-01-19T16:42:36.875Z,12.03
2019-01-19T16:46:11.003Z,10.03
2019-01-19T16:49:43.959Z,11.90
2019-01-19T16:53:27.550Z,11.12
2019-01-19T16:57:18.055Z,11.85
2019-01-19T17:01:14.052Z,11.45
2019-01-19T17:04:44.084Z,10.10
2019-01-19T17:08:15.736Z,9.90
2019-01-19T17:11:39.066Z,9.18
2019-01-19T17:15:05.000Z,9.15
2019-01-19T17:18:35.795Z,11.85
2019-01-19T17:22:32.810Z,12.78
2019-01-19T17:26:03.270Z,10.18
2019-01-19T17:30:01.070Z,11.08
2019-01-19T17:33:30.435Z,10.13
2019-01-19T17:36:50.476Z,11.83
2019-01-19T17:40:32.485Z,10.95
2019-01-19T17:44:23.671Z,30.00
2019-01-19T17:47:57.757Z,15.60
2019-01-19T17:51:29.120Z,18.67
2019-01-19T17:55:23.084Z,15.30
2019-01-19T17:59:12.920Z,12.50
2019-01-19T18:03:01.432Z,12.20
2019-01-19T18:06:50.955Z,20.25
2019-01-19T18:10:43.306Z,12.85
2019-01-19T18:14:11.254Z,22.17
2019-01-19T18:17:57.675Z,32.83
2019-01-19T18:21:50.143Z,19.25
2019-01-19T18:25:25.178Z,18.73
2019-01-19T18:29:11.863Z,15.63
2019-01-19T18:32:49.659Z,13.13
2019-01-19T18:36:29.965Z,10.95
2019-01-19T18:40:03.551Z,13.32
2019-01-19T18:43:23.937Z,12.43
2019-01-19T18:46:53.171Z,14.45
2019-01-19T18:50:40.995Z,13.70
2019-01-19T18:54:11.911Z,14.85
2019-01-19T18:57:41.777Z,21.02
2019-01-19T19:01:26.100Z,12.65
2019-01-19T19:05:18.206Z,13.72
2019-01-19T19:09:05.151Z,13.45
2019-01-19T19:12:38.395Z,15.03
2019-01-19T19:16:13.915Z,13.58
2019-01-19T19:19:44.976Z,14.05
2019-01-19T19:23:05.871Z,14.85
2019-01-19T19:27:19.320Z,15.00
2019-01-19T19:31:11.665Z,15.68
2019-01-19T19:34:49.919Z,15.05
2019-01-19T19:38:38.063Z,15.53
2019-01-19T19:42:24.041Z,17.70
2019-01-19T19:45:48.171Z,16.02
2019-01-19T19:49:34.159Z,15.98
2019-01-19T19:52:39.240Z,16.17
2019-01-19T19:55:42.879Z,15.95
2019-01-19T19:58:48.043Z,15.83
2019-01-19T20:01:53.335Z,16.40
2019-01-19T20:04:58.470Z,15.10
2019-01-19T20:08:03.572Z,14.75
2019-01-19T20:11:08.682Z,15.78
2019-01-19T20:14:13.809Z,20.95
2019-01-19T20:17:19.072Z,19.67
2019-01-19T20:20:24.183Z,16.62
2019-01-19T20:23:29.235Z,17.65
2019-01-19T20:26:34.399Z,16.32
2019-01-19T20:29:39.450Z,16.15
2019-01-19T20:32:44.665Z,15.05
2019-01-19T20:35:49.715Z,15.28
2019-01-19T20:38:54.746Z,16.02
2019-01-19T20:41:59.811Z,15.38
2019-01-19T20:45:06.692Z,15.50
2019-01-19T20:48:11.908Z,15.43
2019-01-19T20:51:17.026Z,15.23
2019-01-19T20:54:22.152Z,16.12
2019-01-19T20:57:27.190Z,15.10
2019-01-19T21:00:32.375Z,14.00
2019-01-19T21:03:37.472Z,15.45
2019-01-19T21:06:42.524Z,14.83
2019-01-19T21:09:47.740Z,17.55
2019-01-19T21:12:52.860Z,16.85
2019-01-19T21:15:57.899Z,15.85
2019-01-19T21:19:03.220Z,16.05
2019-01-19T21:22:08.443Z,15.70
2019-01-19T21:25:13.623Z,15.83
2019-01-19T21:28:18.683Z,16.02
2019-01-19T21:31:23.736Z,16.62
2019-01-19T21:34:28.850Z,16.73
2019-01-19T21:37:33.893Z,15.05
2019-01-19T21:40:39.366Z,14.65
2019-01-19T21:43:44.417Z,15.53
2019-01-19T21:46:49.462Z,13.78
2019-01-19T21:49:54.575Z,13.70
2019-01-19T21:52:59.560Z,14.85
2019-01-19T21:56:04.663Z,15.08
2019-01-19T21:59:09.795Z,14.35
2019-01-19T22:02:14.747Z,14.85
2019-01-19T22:05:21.069Z,14.83
2019-01-19T22:08:26.107Z,14.85
2019-01-19T22:11:31.215Z,14.18
2019-01-19T22:14:36.336Z,14.47
2019-01-19T22:17:41.468Z,14.58
2019-01-19T22:20:46.700Z,14.93
2019-01-19T22:23:51.982Z,14.23
2019-01-19T22:26:57.718Z,14.10
2019-01-19T22:30:03.084Z,14.95
2019-01-19T22:33:09.548Z,14.03
2019-01-19T22:36:14.719Z,16.32
2019-01-19T22:39:19.830Z,16.70
2019-01-19T22:42:25.978Z,15.48
2019-01-19T22:45:31.235Z,16.20
2019-01-19T22:48:36.285Z,15.50
2019-01-19T22:51:41.851Z,13.70
2019-01-19T22:54:47.252Z,16.57
2019-01-19T22:57:52.746Z,16.70
2019-01-19T23:01:30.607Z,15.85
2019-01-19T23:04:36.403Z,16.15
2019-01-19T23:07:41.360Z,16.87
2019-01-19T23:10:46.723Z,15.80
2019-01-19T23:13:52.198Z,15.05
2019-01-19T23:16:57.596Z,15.15
2019-01-19T23:20:02.643Z,15.03
2019-01-19T23:23:07.757Z,15.25
2019-01-19T23:26:13.115Z,16.32
2019-01-19T23:29:18.624Z,15.83
2019-01-19T23:32:23.905Z,16.17
2019-01-19T23:35:29.363Z,14.38
2019-01-19T23:38:34.659Z,15.90
2019-01-19T23:41:39.776Z,16.93
2019-01-19T23:44:45.095Z,16.80
2019-01-19T23:47:50.109Z,14.75
2019-01-19T23:50:55.372Z,14.87
2019-01-19T23:54:00.624Z,16.73
2019-01-19T23:57:05.735Z,15.85
